<?xml version="1.0" encoding="UTF-8" standalone="no" ?>
<gpx xmlns="http://www.topografix.com/GPX/1/1" xmlns:xsi="http://www.w3.org/2001/XMLSchema-instance" xsi:schemaLocation="http://www.topografix.com/GPX/1/1 http://www.topografix.com/GPX/1/1/gpx.xsd" version="1.1" creator="VisuGPX - https://www.visugpx.com">
  <metadata>
    <name>ARBONNE-LA-FORET</name>
    <desc><![CDATA[Arbonne la Forêt avec J-C GRENE]]></desc>
  </metadata>
  <trk>
    <name><![CDATA[--Arbonne-la-Forêt-- OR-6003415:BOIS ROND]]></name>
    <trkseg>
      <trkpt lat="48.38731" lon="2.56306">
        <ele>80</ele>
        <time>2016-04-26T17:54:36Z</time>
      </trkpt>
      <trkpt lat="48.38737" lon="2.56285">
        <ele>80</ele>
        <time>2016-04-26T17:56:36Z</time>
      </trkpt>
      <trkpt lat="48.3874" lon="2.56271">
        <ele>80</ele>
        <time>2016-04-26T17:58:36Z</time>
      </trkpt>
      <trkpt lat="48.38744" lon="2.56255">
        <ele>79</ele>
        <time>2016-04-26T18:00:36Z</time>
      </trkpt>
      <trkpt lat="48.38749" lon="2.56244">
        <ele>79</ele>
        <time>2016-04-26T18:02:36Z</time>
      </trkpt>
      <trkpt lat="48.38753" lon="2.56228">
        <ele>79</ele>
        <time>2016-04-26T18:04:36Z</time>
      </trkpt>
      <trkpt lat="48.38758" lon="2.56216">
        <ele>79</ele>
        <time>2016-04-26T18:06:36Z</time>
      </trkpt>
      <trkpt lat="48.3876" lon="2.56202">
        <ele>79</ele>
        <time>2016-04-26T18:08:36Z</time>
      </trkpt>
      <trkpt lat="48.38762" lon="2.56184">
        <ele>79</ele>
        <time>2016-04-26T18:10:36Z</time>
      </trkpt>
      <trkpt lat="48.38778" lon="2.56203">
        <ele>78</ele>
        <time>2016-04-26T18:12:36Z</time>
      </trkpt>
      <trkpt lat="48.38791" lon="2.56216">
        <ele>78</ele>
        <time>2016-04-26T18:14:36Z</time>
      </trkpt>
      <trkpt lat="48.38811" lon="2.56227">
        <ele>77</ele>
        <time>2016-04-26T18:16:36Z</time>
      </trkpt>
      <trkpt lat="48.38818" lon="2.56235">
        <ele>77</ele>
        <time>2016-04-26T18:18:36Z</time>
      </trkpt>
      <trkpt lat="48.38859" lon="2.56278">
        <ele>78</ele>
        <time>2016-04-26T18:20:36Z</time>
      </trkpt>
      <trkpt lat="48.38875" lon="2.56294">
        <ele>79</ele>
        <time>2016-04-26T18:22:36Z</time>
      </trkpt>
      <trkpt lat="48.38884" lon="2.56312">
        <ele>79</ele>
        <time>2016-04-26T18:24:36Z</time>
      </trkpt>
      <trkpt lat="48.38892" lon="2.56342">
        <ele>80</ele>
        <time>2016-04-26T18:26:36Z</time>
      </trkpt>
      <trkpt lat="48.38895" lon="2.56367">
        <ele>81</ele>
        <time>2016-04-26T18:28:36Z</time>
      </trkpt>
      <trkpt lat="48.38898" lon="2.56407">
        <ele>83</ele>
        <time>2016-04-26T18:30:36Z</time>
      </trkpt>
      <trkpt lat="48.389" lon="2.56426">
        <ele>83</ele>
        <time>2016-04-26T18:32:36Z</time>
      </trkpt>
      <trkpt lat="48.38901" lon="2.56454">
        <ele>84</ele>
        <time>2016-04-26T18:34:36Z</time>
      </trkpt>
      <trkpt lat="48.38912" lon="2.56505">
        <ele>84</ele>
        <time>2016-04-26T18:36:36Z</time>
      </trkpt>
      <trkpt lat="48.38923" lon="2.56552">
        <ele>85</ele>
        <time>2016-04-26T18:38:36Z</time>
      </trkpt>
      <trkpt lat="48.38933" lon="2.56602">
        <ele>86</ele>
        <time>2016-04-26T18:40:36Z</time>
      </trkpt>
      <trkpt lat="48.38936" lon="2.56609">
        <ele>86</ele>
        <time>2016-04-26T18:42:36Z</time>
      </trkpt>
      <trkpt lat="48.38961" lon="2.56628">
        <ele>86</ele>
        <time>2016-04-26T18:44:36Z</time>
      </trkpt>
      <trkpt lat="48.3898" lon="2.56647">
        <ele>86</ele>
        <time>2016-04-26T18:46:36Z</time>
      </trkpt>
      <trkpt lat="48.38991" lon="2.56661">
        <ele>86</ele>
        <time>2016-04-26T18:48:36Z</time>
      </trkpt>
      <trkpt lat="48.39003" lon="2.56679">
        <ele>87</ele>
        <time>2016-04-26T18:50:36Z</time>
      </trkpt>
      <trkpt lat="48.39016" lon="2.56709">
        <ele>89</ele>
        <time>2016-04-26T18:52:36Z</time>
      </trkpt>
      <trkpt lat="48.39027" lon="2.56733">
        <ele>91</ele>
        <time>2016-04-26T18:54:36Z</time>
      </trkpt>
      <trkpt lat="48.39034" lon="2.56759">
        <ele>93</ele>
        <time>2016-04-26T18:56:36Z</time>
      </trkpt>
      <trkpt lat="48.39039" lon="2.56777">
        <ele>94</ele>
        <time>2016-04-26T18:58:36Z</time>
      </trkpt>
      <trkpt lat="48.39048" lon="2.56787">
        <ele>95</ele>
        <time>2016-04-26T19:00:36Z</time>
      </trkpt>
      <trkpt lat="48.39059" lon="2.56798">
        <ele>97</ele>
        <time>2016-04-26T19:02:36Z</time>
      </trkpt>
      <trkpt lat="48.39069" lon="2.56803">
        <ele>99</ele>
        <time>2016-04-26T19:04:36Z</time>
      </trkpt>
      <trkpt lat="48.39077" lon="2.56808">
        <ele>100</ele>
        <time>2016-04-26T19:06:36Z</time>
      </trkpt>
      <trkpt lat="48.39087" lon="2.56813">
        <ele>102</ele>
        <time>2016-04-26T19:08:36Z</time>
      </trkpt>
      <trkpt lat="48.39098" lon="2.56813">
        <ele>104</ele>
        <time>2016-04-26T19:10:36Z</time>
      </trkpt>
      <trkpt lat="48.3911" lon="2.56814">
        <ele>107</ele>
        <time>2016-04-26T19:12:36Z</time>
      </trkpt>
      <trkpt lat="48.39123" lon="2.56819">
        <ele>110</ele>
        <time>2016-04-26T19:14:36Z</time>
      </trkpt>
      <trkpt lat="48.39134" lon="2.56821">
        <ele>112</ele>
        <time>2016-04-26T19:16:36Z</time>
      </trkpt>
      <trkpt lat="48.39143" lon="2.56848">
        <ele>114</ele>
        <time>2016-04-26T19:18:36Z</time>
      </trkpt>
      <trkpt lat="48.39143" lon="2.56859">
        <ele>114</ele>
        <time>2016-04-26T19:20:36Z</time>
      </trkpt>
      <trkpt lat="48.39151" lon="2.56863">
        <ele>116</ele>
        <time>2016-04-26T19:22:36Z</time>
      </trkpt>
      <trkpt lat="48.39158" lon="2.56865">
        <ele>117</ele>
        <time>2016-04-26T19:24:36Z</time>
      </trkpt>
      <trkpt lat="48.39164" lon="2.56859">
        <ele>118</ele>
        <time>2016-04-26T19:26:36Z</time>
      </trkpt>
      <trkpt lat="48.39171" lon="2.56867">
        <ele>118</ele>
        <time>2016-04-26T19:28:36Z</time>
      </trkpt>
      <trkpt lat="48.39167" lon="2.56887">
        <ele>118</ele>
        <time>2016-04-26T19:30:36Z</time>
      </trkpt>
      <trkpt lat="48.39164" lon="2.56901">
        <ele>118</ele>
        <time>2016-04-26T19:32:36Z</time>
      </trkpt>
      <trkpt lat="48.3916" lon="2.56913">
        <ele>117</ele>
        <time>2016-04-26T19:34:36Z</time>
      </trkpt>
      <trkpt lat="48.39156" lon="2.56933">
        <ele>117</ele>
        <time>2016-04-26T19:36:36Z</time>
      </trkpt>
      <trkpt lat="48.39155" lon="2.56947">
        <ele>117</ele>
        <time>2016-04-26T19:38:36Z</time>
      </trkpt>
      <trkpt lat="48.39153" lon="2.5697">
        <ele>118</ele>
        <time>2016-04-26T19:40:36Z</time>
      </trkpt>
      <trkpt lat="48.39151" lon="2.56989">
        <ele>118</ele>
        <time>2016-04-26T19:42:36Z</time>
      </trkpt>
      <trkpt lat="48.39148" lon="2.57007">
        <ele>118</ele>
        <time>2016-04-26T19:44:36Z</time>
      </trkpt>
      <trkpt lat="48.39144" lon="2.57029">
        <ele>118</ele>
        <time>2016-04-26T19:46:36Z</time>
      </trkpt>
      <trkpt lat="48.39137" lon="2.5705">
        <ele>118</ele>
        <time>2016-04-26T19:48:36Z</time>
      </trkpt>
      <trkpt lat="48.39135" lon="2.57063">
        <ele>118</ele>
        <time>2016-04-26T19:50:36Z</time>
      </trkpt>
      <trkpt lat="48.39133" lon="2.57081">
        <ele>118</ele>
        <time>2016-04-26T19:52:36Z</time>
      </trkpt>
      <trkpt lat="48.3913" lon="2.57099">
        <ele>118</ele>
        <time>2016-04-26T19:54:36Z</time>
      </trkpt>
      <trkpt lat="48.39126" lon="2.57118">
        <ele>118</ele>
        <time>2016-04-26T19:56:36Z</time>
      </trkpt>
      <trkpt lat="48.39123" lon="2.57136">
        <ele>118</ele>
        <time>2016-04-26T19:58:36Z</time>
      </trkpt>
      <trkpt lat="48.3912" lon="2.57152">
        <ele>118</ele>
        <time>2016-04-26T20:00:36Z</time>
      </trkpt>
      <trkpt lat="48.39118" lon="2.57166">
        <ele>118</ele>
        <time>2016-04-26T20:02:36Z</time>
      </trkpt>
      <trkpt lat="48.3911" lon="2.57177">
        <ele>118</ele>
        <time>2016-04-26T20:04:36Z</time>
      </trkpt>
      <trkpt lat="48.39103" lon="2.5719">
        <ele>117</ele>
        <time>2016-04-26T20:06:36Z</time>
      </trkpt>
      <trkpt lat="48.39095" lon="2.57199">
        <ele>117</ele>
        <time>2016-04-26T20:08:36Z</time>
      </trkpt>
      <trkpt lat="48.39088" lon="2.57211">
        <ele>118</ele>
        <time>2016-04-26T20:10:36Z</time>
      </trkpt>
      <trkpt lat="48.3908" lon="2.57225">
        <ele>117</ele>
        <time>2016-04-26T20:12:36Z</time>
      </trkpt>
      <trkpt lat="48.39074" lon="2.57252">
        <ele>117</ele>
        <time>2016-04-26T20:14:36Z</time>
      </trkpt>
      <trkpt lat="48.3907" lon="2.5727">
        <ele>117</ele>
        <time>2016-04-26T20:16:36Z</time>
      </trkpt>
      <trkpt lat="48.39064" lon="2.57289">
        <ele>118</ele>
        <time>2016-04-26T20:18:36Z</time>
      </trkpt>
      <trkpt lat="48.39057" lon="2.57311">
        <ele>118</ele>
        <time>2016-04-26T20:20:36Z</time>
      </trkpt>
      <trkpt lat="48.39049" lon="2.5733">
        <ele>118</ele>
        <time>2016-04-26T20:22:36Z</time>
      </trkpt>
      <trkpt lat="48.39044" lon="2.57349">
        <ele>118</ele>
        <time>2016-04-26T20:24:36Z</time>
      </trkpt>
      <trkpt lat="48.39042" lon="2.57365">
        <ele>118</ele>
        <time>2016-04-26T20:26:36Z</time>
      </trkpt>
      <trkpt lat="48.39037" lon="2.57385">
        <ele>118</ele>
        <time>2016-04-26T20:28:36Z</time>
      </trkpt>
      <trkpt lat="48.39035" lon="2.57397">
        <ele>118</ele>
        <time>2016-04-26T20:30:36Z</time>
      </trkpt>
      <trkpt lat="48.39031" lon="2.57407">
        <ele>118</ele>
        <time>2016-04-26T20:32:36Z</time>
      </trkpt>
      <trkpt lat="48.39026" lon="2.57418">
        <ele>118</ele>
        <time>2016-04-26T20:34:36Z</time>
      </trkpt>
      <trkpt lat="48.39026" lon="2.5743">
        <ele>118</ele>
        <time>2016-04-26T20:36:36Z</time>
      </trkpt>
      <trkpt lat="48.39023" lon="2.57443">
        <ele>117</ele>
        <time>2016-04-26T20:38:36Z</time>
      </trkpt>
      <trkpt lat="48.39024" lon="2.57451">
        <ele>117</ele>
        <time>2016-04-26T20:40:36Z</time>
      </trkpt>
      <trkpt lat="48.39029" lon="2.57454">
        <ele>118</ele>
        <time>2016-04-26T20:42:36Z</time>
      </trkpt>
      <trkpt lat="48.3903" lon="2.57462">
        <ele>118</ele>
        <time>2016-04-26T20:44:36Z</time>
      </trkpt>
      <trkpt lat="48.39027" lon="2.57476">
        <ele>117</ele>
        <time>2016-04-26T20:46:36Z</time>
      </trkpt>
      <trkpt lat="48.39031" lon="2.57489">
        <ele>118</ele>
        <time>2016-04-26T20:48:36Z</time>
      </trkpt>
      <trkpt lat="48.39039" lon="2.57495">
        <ele>118</ele>
        <time>2016-04-26T20:50:36Z</time>
      </trkpt>
      <trkpt lat="48.39042" lon="2.57507">
        <ele>118</ele>
        <time>2016-04-26T20:52:36Z</time>
      </trkpt>
      <trkpt lat="48.39041" lon="2.57521">
        <ele>119</ele>
        <time>2016-04-26T20:54:36Z</time>
      </trkpt>
      <trkpt lat="48.3904" lon="2.5755">
        <ele>119</ele>
        <time>2016-04-26T20:56:36Z</time>
      </trkpt>
      <trkpt lat="48.39042" lon="2.57569">
        <ele>120</ele>
        <time>2016-04-26T20:58:36Z</time>
      </trkpt>
      <trkpt lat="48.39044" lon="2.57583">
        <ele>121</ele>
        <time>2016-04-26T21:00:36Z</time>
      </trkpt>
      <trkpt lat="48.39043" lon="2.57597">
        <ele>121</ele>
        <time>2016-04-26T21:02:36Z</time>
      </trkpt>
      <trkpt lat="48.39035" lon="2.57636">
        <ele>121</ele>
        <time>2016-04-26T21:04:36Z</time>
      </trkpt>
      <trkpt lat="48.39026" lon="2.57668">
        <ele>122</ele>
        <time>2016-04-26T21:06:36Z</time>
      </trkpt>
      <trkpt lat="48.3902" lon="2.57695">
        <ele>122</ele>
        <time>2016-04-26T21:08:36Z</time>
      </trkpt>
      <trkpt lat="48.39015" lon="2.57714">
        <ele>122</ele>
        <time>2016-04-26T21:10:36Z</time>
      </trkpt>
      <trkpt lat="48.39011" lon="2.57739">
        <ele>122</ele>
        <time>2016-04-26T21:12:36Z</time>
      </trkpt>
      <trkpt lat="48.39006" lon="2.57761">
        <ele>123</ele>
        <time>2016-04-26T21:14:36Z</time>
      </trkpt>
      <trkpt lat="48.39003" lon="2.5778">
        <ele>123</ele>
        <time>2016-04-26T21:16:36Z</time>
      </trkpt>
      <trkpt lat="48.39001" lon="2.57795">
        <ele>123</ele>
        <time>2016-04-26T21:18:36Z</time>
      </trkpt>
      <trkpt lat="48.39003" lon="2.57808">
        <ele>123</ele>
        <time>2016-04-26T21:20:36Z</time>
      </trkpt>
      <trkpt lat="48.39004" lon="2.5782">
        <ele>123</ele>
        <time>2016-04-26T21:22:36Z</time>
      </trkpt>
      <trkpt lat="48.39005" lon="2.57835">
        <ele>123</ele>
        <time>2016-04-26T21:24:36Z</time>
      </trkpt>
      <trkpt lat="48.39009" lon="2.57852">
        <ele>122</ele>
        <time>2016-04-26T21:26:36Z</time>
      </trkpt>
      <trkpt lat="48.39014" lon="2.57861">
        <ele>122</ele>
        <time>2016-04-26T21:28:36Z</time>
      </trkpt>
      <trkpt lat="48.39018" lon="2.57871">
        <ele>121</ele>
        <time>2016-04-26T21:30:36Z</time>
      </trkpt>
      <trkpt lat="48.39024" lon="2.57883">
        <ele>121</ele>
        <time>2016-04-26T21:32:36Z</time>
      </trkpt>
      <trkpt lat="48.39032" lon="2.5789">
        <ele>120</ele>
        <time>2016-04-26T21:34:36Z</time>
      </trkpt>
      <trkpt lat="48.39039" lon="2.57895">
        <ele>119</ele>
        <time>2016-04-26T21:36:36Z</time>
      </trkpt>
      <trkpt lat="48.39044" lon="2.57901">
        <ele>119</ele>
        <time>2016-04-26T21:38:36Z</time>
      </trkpt>
      <trkpt lat="48.39045" lon="2.57913">
        <ele>119</ele>
        <time>2016-04-26T21:40:36Z</time>
      </trkpt>
      <trkpt lat="48.39045" lon="2.57924">
        <ele>119</ele>
        <time>2016-04-26T21:42:36Z</time>
      </trkpt>
      <trkpt lat="48.39047" lon="2.57933">
        <ele>118</ele>
        <time>2016-04-26T21:44:36Z</time>
      </trkpt>
      <trkpt lat="48.39043" lon="2.57945">
        <ele>119</ele>
        <time>2016-04-26T21:46:36Z</time>
      </trkpt>
      <trkpt lat="48.39039" lon="2.57961">
        <ele>119</ele>
        <time>2016-04-26T21:48:36Z</time>
      </trkpt>
      <trkpt lat="48.39036" lon="2.57978">
        <ele>119</ele>
        <time>2016-04-26T21:50:36Z</time>
      </trkpt>
      <trkpt lat="48.39037" lon="2.57994">
        <ele>119</ele>
        <time>2016-04-26T21:52:36Z</time>
      </trkpt>
      <trkpt lat="48.39041" lon="2.58011">
        <ele>118</ele>
        <time>2016-04-26T21:54:36Z</time>
      </trkpt>
      <trkpt lat="48.39044" lon="2.58029">
        <ele>118</ele>
        <time>2016-04-26T21:56:36Z</time>
      </trkpt>
      <trkpt lat="48.39046" lon="2.58048">
        <ele>118</ele>
        <time>2016-04-26T21:58:36Z</time>
      </trkpt>
      <trkpt lat="48.3905" lon="2.58052">
        <ele>118</ele>
        <time>2016-04-26T22:00:36Z</time>
      </trkpt>
      <trkpt lat="48.39055" lon="2.58056">
        <ele>117</ele>
        <time>2016-04-26T22:02:36Z</time>
      </trkpt>
      <trkpt lat="48.39057" lon="2.58069">
        <ele>117</ele>
        <time>2016-04-26T22:04:36Z</time>
      </trkpt>
      <trkpt lat="48.39065" lon="2.58071">
        <ele>116</ele>
        <time>2016-04-26T22:06:36Z</time>
      </trkpt>
      <trkpt lat="48.3907" lon="2.58072">
        <ele>115</ele>
        <time>2016-04-26T22:08:36Z</time>
      </trkpt>
      <trkpt lat="48.39079" lon="2.5806">
        <ele>114</ele>
        <time>2016-04-26T22:10:36Z</time>
      </trkpt>
      <trkpt lat="48.39091" lon="2.58049">
        <ele>112</ele>
        <time>2016-04-26T22:12:36Z</time>
      </trkpt>
      <trkpt lat="48.39096" lon="2.58059">
        <ele>111</ele>
        <time>2016-04-26T22:14:36Z</time>
      </trkpt>
      <trkpt lat="48.39104" lon="2.58063">
        <ele>109</ele>
        <time>2016-04-26T22:16:36Z</time>
      </trkpt>
      <trkpt lat="48.39113" lon="2.58065">
        <ele>107</ele>
        <time>2016-04-26T22:18:36Z</time>
      </trkpt>
      <trkpt lat="48.39122" lon="2.58088">
        <ele>105</ele>
        <time>2016-04-26T22:20:36Z</time>
      </trkpt>
      <trkpt lat="48.3912" lon="2.58103">
        <ele>105</ele>
        <time>2016-04-26T22:22:36Z</time>
      </trkpt>
      <trkpt lat="48.39121" lon="2.58117">
        <ele>104</ele>
        <time>2016-04-26T22:24:36Z</time>
      </trkpt>
      <trkpt lat="48.39121" lon="2.58134">
        <ele>104</ele>
        <time>2016-04-26T22:26:36Z</time>
      </trkpt>
      <trkpt lat="48.39129" lon="2.58145">
        <ele>102</ele>
        <time>2016-04-26T22:28:36Z</time>
      </trkpt>
      <trkpt lat="48.39137" lon="2.58149">
        <ele>100</ele>
        <time>2016-04-26T22:30:36Z</time>
      </trkpt>
      <trkpt lat="48.3914" lon="2.58169">
        <ele>99</ele>
        <time>2016-04-26T22:32:36Z</time>
      </trkpt>
      <trkpt lat="48.39142" lon="2.58184">
        <ele>99</ele>
        <time>2016-04-26T22:34:36Z</time>
      </trkpt>
      <trkpt lat="48.39145" lon="2.58195">
        <ele>98</ele>
        <time>2016-04-26T22:36:36Z</time>
      </trkpt>
      <trkpt lat="48.3914" lon="2.58234">
        <ele>99</ele>
        <time>2016-04-26T22:38:36Z</time>
      </trkpt>
      <trkpt lat="48.39134" lon="2.58253">
        <ele>100</ele>
        <time>2016-04-26T22:40:36Z</time>
      </trkpt>
      <trkpt lat="48.39126" lon="2.58268">
        <ele>101</ele>
        <time>2016-04-26T22:42:36Z</time>
      </trkpt>
      <trkpt lat="48.3912" lon="2.58287">
        <ele>102</ele>
        <time>2016-04-26T22:44:36Z</time>
      </trkpt>
      <trkpt lat="48.39117" lon="2.58312">
        <ele>103</ele>
        <time>2016-04-26T22:46:36Z</time>
      </trkpt>
      <trkpt lat="48.39121" lon="2.58334">
        <ele>102</ele>
        <time>2016-04-26T22:48:36Z</time>
      </trkpt>
      <trkpt lat="48.39125" lon="2.58356">
        <ele>101</ele>
        <time>2016-04-26T22:50:36Z</time>
      </trkpt>
      <trkpt lat="48.39127" lon="2.58374">
        <ele>100</ele>
        <time>2016-04-26T22:52:36Z</time>
      </trkpt>
      <trkpt lat="48.39126" lon="2.5839">
        <ele>100</ele>
        <time>2016-04-26T22:54:36Z</time>
      </trkpt>
      <trkpt lat="48.39124" lon="2.58405">
        <ele>100</ele>
        <time>2016-04-26T22:56:36Z</time>
      </trkpt>
      <trkpt lat="48.39121" lon="2.5843">
        <ele>100</ele>
        <time>2016-04-26T22:58:36Z</time>
      </trkpt>
      <trkpt lat="48.39121" lon="2.58452">
        <ele>100</ele>
        <time>2016-04-26T23:00:36Z</time>
      </trkpt>
      <trkpt lat="48.39121" lon="2.58486">
        <ele>99</ele>
        <time>2016-04-26T23:02:36Z</time>
      </trkpt>
      <trkpt lat="48.39125" lon="2.5851">
        <ele>98</ele>
        <time>2016-04-26T23:04:36Z</time>
      </trkpt>
      <trkpt lat="48.39132" lon="2.58533">
        <ele>97</ele>
        <time>2016-04-26T23:06:36Z</time>
      </trkpt>
      <trkpt lat="48.39141" lon="2.58553">
        <ele>95</ele>
        <time>2016-04-26T23:08:36Z</time>
      </trkpt>
      <trkpt lat="48.39146" lon="2.5856">
        <ele>95</ele>
        <time>2016-04-26T23:10:36Z</time>
      </trkpt>
      <trkpt lat="48.39152" lon="2.58563">
        <ele>94</ele>
        <time>2016-04-26T23:12:36Z</time>
      </trkpt>
      <trkpt lat="48.39161" lon="2.58556">
        <ele>93</ele>
        <time>2016-04-26T23:14:36Z</time>
      </trkpt>
      <trkpt lat="48.39171" lon="2.58548">
        <ele>92</ele>
        <time>2016-04-26T23:16:36Z</time>
      </trkpt>
      <trkpt lat="48.39211" lon="2.58506">
        <ele>91</ele>
        <time>2016-04-26T23:18:36Z</time>
      </trkpt>
      <trkpt lat="48.39235" lon="2.58485">
        <ele>90</ele>
        <time>2016-04-26T23:20:36Z</time>
      </trkpt>
      <trkpt lat="48.39251" lon="2.58466">
        <ele>89</ele>
        <time>2016-04-26T23:22:36Z</time>
      </trkpt>
      <trkpt lat="48.39262" lon="2.58454">
        <ele>89</ele>
        <time>2016-04-26T23:24:36Z</time>
      </trkpt>
      <trkpt lat="48.39275" lon="2.58439">
        <ele>89</ele>
        <time>2016-04-26T23:26:36Z</time>
      </trkpt>
      <trkpt lat="48.39295" lon="2.5842">
        <ele>89</ele>
        <time>2016-04-26T23:28:36Z</time>
      </trkpt>
      <trkpt lat="48.39312" lon="2.58402">
        <ele>89</ele>
        <time>2016-04-26T23:30:36Z</time>
      </trkpt>
      <trkpt lat="48.39342" lon="2.58374">
        <ele>88</ele>
        <time>2016-04-26T23:32:36Z</time>
      </trkpt>
      <trkpt lat="48.39357" lon="2.58358">
        <ele>88</ele>
        <time>2016-04-26T23:34:36Z</time>
      </trkpt>
      <trkpt lat="48.39378" lon="2.58336">
        <ele>86</ele>
        <time>2016-04-26T23:36:36Z</time>
      </trkpt>
      <trkpt lat="48.39389" lon="2.58321">
        <ele>86</ele>
        <time>2016-04-26T23:38:36Z</time>
      </trkpt>
      <trkpt lat="48.39397" lon="2.58312">
        <ele>85</ele>
        <time>2016-04-26T23:40:36Z</time>
      </trkpt>
      <trkpt lat="48.39415" lon="2.58296">
        <ele>84</ele>
        <time>2016-04-26T23:42:36Z</time>
      </trkpt>
      <trkpt lat="48.39426" lon="2.58288">
        <ele>83</ele>
        <time>2016-04-26T23:44:36Z</time>
      </trkpt>
      <trkpt lat="48.39445" lon="2.58217">
        <ele>81</ele>
        <time>2016-04-26T23:46:36Z</time>
      </trkpt>
      <trkpt lat="48.3946" lon="2.58168">
        <ele>80</ele>
        <time>2016-04-26T23:48:36Z</time>
      </trkpt>
      <trkpt lat="48.39469" lon="2.58135">
        <ele>79</ele>
        <time>2016-04-26T23:50:36Z</time>
      </trkpt>
      <trkpt lat="48.39487" lon="2.58086">
        <ele>78</ele>
        <time>2016-04-26T23:52:36Z</time>
      </trkpt>
      <trkpt lat="48.3951" lon="2.58029">
        <ele>77</ele>
        <time>2016-04-26T23:54:36Z</time>
      </trkpt>
      <trkpt lat="48.39548" lon="2.57942">
        <ele>75</ele>
        <time>2016-04-26T23:56:36Z</time>
      </trkpt>
      <trkpt lat="48.39569" lon="2.57893">
        <ele>74</ele>
        <time>2016-04-26T23:58:36Z</time>
      </trkpt>
      <trkpt lat="48.39598" lon="2.57824">
        <ele>74</ele>
        <time>2016-04-27T00:00:36Z</time>
      </trkpt>
      <trkpt lat="48.39618" lon="2.57776">
        <ele>75</ele>
        <time>2016-04-27T00:02:36Z</time>
      </trkpt>
      <trkpt lat="48.39629" lon="2.57751">
        <ele>75</ele>
        <time>2016-04-27T00:04:36Z</time>
      </trkpt>
      <trkpt lat="48.39635" lon="2.57732">
        <ele>75</ele>
        <time>2016-04-27T00:06:36Z</time>
      </trkpt>
      <trkpt lat="48.39632" lon="2.57725">
        <ele>75</ele>
        <time>2016-04-27T00:08:36Z</time>
      </trkpt>
      <trkpt lat="48.39626" lon="2.57718">
        <ele>75</ele>
        <time>2016-04-27T00:10:36Z</time>
      </trkpt>
      <trkpt lat="48.39618" lon="2.57716">
        <ele>74</ele>
        <time>2016-04-27T00:12:36Z</time>
      </trkpt>
      <trkpt lat="48.39613" lon="2.57723">
        <ele>74</ele>
        <time>2016-04-27T00:14:36Z</time>
      </trkpt>
      <trkpt lat="48.39606" lon="2.57727">
        <ele>74</ele>
        <time>2016-04-27T00:16:36Z</time>
      </trkpt>
      <trkpt lat="48.39585" lon="2.5772">
        <ele>74</ele>
        <time>2016-04-27T00:18:36Z</time>
      </trkpt>
      <trkpt lat="48.39558" lon="2.5771">
        <ele>74</ele>
        <time>2016-04-27T00:20:36Z</time>
      </trkpt>
      <trkpt lat="48.39542" lon="2.57702">
        <ele>74</ele>
        <time>2016-04-27T00:22:36Z</time>
      </trkpt>
      <trkpt lat="48.39529" lon="2.57697">
        <ele>74</ele>
        <time>2016-04-27T00:24:36Z</time>
      </trkpt>
      <trkpt lat="48.39517" lon="2.57692">
        <ele>74</ele>
        <time>2016-04-27T00:26:36Z</time>
      </trkpt>
      <trkpt lat="48.39517" lon="2.57669">
        <ele>74</ele>
        <time>2016-04-27T00:28:36Z</time>
      </trkpt>
      <trkpt lat="48.39514" lon="2.57655">
        <ele>74</ele>
        <time>2016-04-27T00:30:36Z</time>
      </trkpt>
      <trkpt lat="48.39509" lon="2.5766">
        <ele>74</ele>
        <time>2016-04-27T00:32:36Z</time>
      </trkpt>
      <trkpt lat="48.39509" lon="2.57672">
        <ele>74</ele>
        <time>2016-04-27T00:34:36Z</time>
      </trkpt>
      <trkpt lat="48.39514" lon="2.57687">
        <ele>74</ele>
        <time>2016-04-27T00:36:36Z</time>
      </trkpt>
      <trkpt lat="48.39522" lon="2.57695">
        <ele>74</ele>
        <time>2016-04-27T00:38:36Z</time>
      </trkpt>
      <trkpt lat="48.39536" lon="2.57702">
        <ele>74</ele>
        <time>2016-04-27T00:40:36Z</time>
      </trkpt>
      <trkpt lat="48.3955" lon="2.57709">
        <ele>74</ele>
        <time>2016-04-27T00:42:36Z</time>
      </trkpt>
      <trkpt lat="48.39575" lon="2.57719">
        <ele>74</ele>
        <time>2016-04-27T00:44:36Z</time>
      </trkpt>
      <trkpt lat="48.39594" lon="2.57725">
        <ele>74</ele>
        <time>2016-04-27T00:46:36Z</time>
      </trkpt>
      <trkpt lat="48.3961" lon="2.57729">
        <ele>74</ele>
        <time>2016-04-27T00:48:36Z</time>
      </trkpt>
      <trkpt lat="48.39613" lon="2.5774">
        <ele>75</ele>
        <time>2016-04-27T00:50:36Z</time>
      </trkpt>
      <trkpt lat="48.3962" lon="2.57746">
        <ele>75</ele>
        <time>2016-04-27T00:52:36Z</time>
      </trkpt>
      <trkpt lat="48.39626" lon="2.57741">
        <ele>75</ele>
        <time>2016-04-27T00:54:36Z</time>
      </trkpt>
      <trkpt lat="48.39639" lon="2.57726">
        <ele>75</ele>
        <time>2016-04-27T00:56:36Z</time>
      </trkpt>
      <trkpt lat="48.39672" lon="2.57652">
        <ele>74</ele>
        <time>2016-04-27T00:58:36Z</time>
      </trkpt>
      <trkpt lat="48.3973" lon="2.57537">
        <ele>75</ele>
        <time>2016-04-27T01:00:36Z</time>
      </trkpt>
      <trkpt lat="48.39756" lon="2.57486">
        <ele>75</ele>
        <time>2016-04-27T01:02:36Z</time>
      </trkpt>
      <trkpt lat="48.39773" lon="2.57452">
        <ele>75</ele>
        <time>2016-04-27T01:04:36Z</time>
      </trkpt>
      <trkpt lat="48.39778" lon="2.57442">
        <ele>75</ele>
        <time>2016-04-27T01:06:36Z</time>
      </trkpt>
      <trkpt lat="48.39784" lon="2.57435">
        <ele>75</ele>
        <time>2016-04-27T01:08:36Z</time>
      </trkpt>
      <trkpt lat="48.39792" lon="2.57389">
        <ele>75</ele>
        <time>2016-04-27T01:10:36Z</time>
      </trkpt>
      <trkpt lat="48.39803" lon="2.57302">
        <ele>76</ele>
        <time>2016-04-27T01:12:36Z</time>
      </trkpt>
      <trkpt lat="48.39808" lon="2.57262">
        <ele>77</ele>
        <time>2016-04-27T01:14:36Z</time>
      </trkpt>
      <trkpt lat="48.3981" lon="2.57227">
        <ele>77</ele>
        <time>2016-04-27T01:16:36Z</time>
      </trkpt>
      <trkpt lat="48.3982" lon="2.57128">
        <ele>77</ele>
        <time>2016-04-27T01:18:36Z</time>
      </trkpt>
      <trkpt lat="48.39833" lon="2.57038">
        <ele>76</ele>
        <time>2016-04-27T01:20:36Z</time>
      </trkpt>
      <trkpt lat="48.39841" lon="2.56977">
        <ele>76</ele>
        <time>2016-04-27T01:22:36Z</time>
      </trkpt>
      <trkpt lat="48.39854" lon="2.56914">
        <ele>77</ele>
        <time>2016-04-27T01:24:36Z</time>
      </trkpt>
      <trkpt lat="48.3986" lon="2.56881">
        <ele>77</ele>
        <time>2016-04-27T01:26:36Z</time>
      </trkpt>
      <trkpt lat="48.39869" lon="2.5684">
        <ele>77</ele>
        <time>2016-04-27T01:28:36Z</time>
      </trkpt>
      <trkpt lat="48.39878" lon="2.5681">
        <ele>77</ele>
        <time>2016-04-27T01:30:36Z</time>
      </trkpt>
      <trkpt lat="48.39882" lon="2.56797">
        <ele>77</ele>
        <time>2016-04-27T01:32:36Z</time>
      </trkpt>
      <trkpt lat="48.39867" lon="2.56782">
        <ele>77</ele>
        <time>2016-04-27T01:34:36Z</time>
      </trkpt>
      <trkpt lat="48.39841" lon="2.56757">
        <ele>76</ele>
        <time>2016-04-27T01:36:36Z</time>
      </trkpt>
      <trkpt lat="48.39827" lon="2.5675">
        <ele>76</ele>
        <time>2016-04-27T01:38:36Z</time>
      </trkpt>
      <trkpt lat="48.39817" lon="2.56738">
        <ele>75</ele>
        <time>2016-04-27T01:40:36Z</time>
      </trkpt>
      <trkpt lat="48.39804" lon="2.5673">
        <ele>75</ele>
        <time>2016-04-27T01:42:36Z</time>
      </trkpt>
      <trkpt lat="48.39767" lon="2.56696">
        <ele>74</ele>
        <time>2016-04-27T01:44:36Z</time>
      </trkpt>
      <trkpt lat="48.39747" lon="2.56686">
        <ele>74</ele>
        <time>2016-04-27T01:46:36Z</time>
      </trkpt>
      <trkpt lat="48.39709" lon="2.56651">
        <ele>74</ele>
        <time>2016-04-27T01:48:36Z</time>
      </trkpt>
      <trkpt lat="48.39685" lon="2.56625">
        <ele>75</ele>
        <time>2016-04-27T01:50:36Z</time>
      </trkpt>
      <trkpt lat="48.39659" lon="2.56603">
        <ele>76</ele>
        <time>2016-04-27T01:52:36Z</time>
      </trkpt>
      <trkpt lat="48.39637" lon="2.56586">
        <ele>75</ele>
        <time>2016-04-27T01:54:36Z</time>
      </trkpt>
      <trkpt lat="48.39614" lon="2.56568">
        <ele>75</ele>
        <time>2016-04-27T01:56:36Z</time>
      </trkpt>
      <trkpt lat="48.39596" lon="2.56555">
        <ele>74</ele>
        <time>2016-04-27T01:58:36Z</time>
      </trkpt>
      <trkpt lat="48.39582" lon="2.5654">
        <ele>75</ele>
        <time>2016-04-27T02:00:36Z</time>
      </trkpt>
      <trkpt lat="48.39564" lon="2.56525">
        <ele>74</ele>
        <time>2016-04-27T02:02:36Z</time>
      </trkpt>
      <trkpt lat="48.39552" lon="2.56513">
        <ele>74</ele>
        <time>2016-04-27T02:04:36Z</time>
      </trkpt>
      <trkpt lat="48.39538" lon="2.56497">
        <ele>75</ele>
        <time>2016-04-27T02:06:36Z</time>
      </trkpt>
      <trkpt lat="48.39503" lon="2.56469">
        <ele>75</ele>
        <time>2016-04-27T02:08:36Z</time>
      </trkpt>
      <trkpt lat="48.39478" lon="2.5645">
        <ele>75</ele>
        <time>2016-04-27T02:10:36Z</time>
      </trkpt>
      <trkpt lat="48.39458" lon="2.56428">
        <ele>76</ele>
        <time>2016-04-27T02:12:36Z</time>
      </trkpt>
      <trkpt lat="48.39442" lon="2.5641">
        <ele>77</ele>
        <time>2016-04-27T02:14:36Z</time>
      </trkpt>
      <trkpt lat="48.3943" lon="2.56399">
        <ele>77</ele>
        <time>2016-04-27T02:16:36Z</time>
      </trkpt>
      <trkpt lat="48.39412" lon="2.5639">
        <ele>78</ele>
        <time>2016-04-27T02:18:36Z</time>
      </trkpt>
      <trkpt lat="48.39401" lon="2.56401">
        <ele>79</ele>
        <time>2016-04-27T02:20:36Z</time>
      </trkpt>
      <trkpt lat="48.39399" lon="2.56428">
        <ele>79</ele>
        <time>2016-04-27T02:22:36Z</time>
      </trkpt>
      <trkpt lat="48.39399" lon="2.56445">
        <ele>78</ele>
        <time>2016-04-27T02:24:36Z</time>
      </trkpt>
      <trkpt lat="48.39395" lon="2.56485">
        <ele>77</ele>
        <time>2016-04-27T02:26:36Z</time>
      </trkpt>
      <trkpt lat="48.39391" lon="2.56513">
        <ele>78</ele>
        <time>2016-04-27T02:28:36Z</time>
      </trkpt>
      <trkpt lat="48.39393" lon="2.5653">
        <ele>77</ele>
        <time>2016-04-27T02:30:36Z</time>
      </trkpt>
      <trkpt lat="48.39375" lon="2.566">
        <ele>80</ele>
        <time>2016-04-27T02:32:36Z</time>
      </trkpt>
      <trkpt lat="48.39376" lon="2.56629">
        <ele>80</ele>
        <time>2016-04-27T02:34:36Z</time>
      </trkpt>
      <trkpt lat="48.3937" lon="2.56651">
        <ele>80</ele>
        <time>2016-04-27T02:36:36Z</time>
      </trkpt>
      <trkpt lat="48.39367" lon="2.56676">
        <ele>80</ele>
        <time>2016-04-27T02:38:36Z</time>
      </trkpt>
      <trkpt lat="48.39363" lon="2.56699">
        <ele>81</ele>
        <time>2016-04-27T02:40:36Z</time>
      </trkpt>
      <trkpt lat="48.39359" lon="2.56719">
        <ele>81</ele>
        <time>2016-04-27T02:42:36Z</time>
      </trkpt>
      <trkpt lat="48.39359" lon="2.56735">
        <ele>81</ele>
        <time>2016-04-27T02:44:36Z</time>
      </trkpt>
      <trkpt lat="48.39358" lon="2.56749">
        <ele>81</ele>
        <time>2016-04-27T02:46:36Z</time>
      </trkpt>
      <trkpt lat="48.39352" lon="2.56769">
        <ele>81</ele>
        <time>2016-04-27T02:48:36Z</time>
      </trkpt>
      <trkpt lat="48.39347" lon="2.56786">
        <ele>82</ele>
        <time>2016-04-27T02:50:36Z</time>
      </trkpt>
      <trkpt lat="48.39338" lon="2.56799">
        <ele>83</ele>
        <time>2016-04-27T02:52:36Z</time>
      </trkpt>
      <trkpt lat="48.39334" lon="2.56812">
        <ele>83</ele>
        <time>2016-04-27T02:54:36Z</time>
      </trkpt>
      <trkpt lat="48.39332" lon="2.56824">
        <ele>83</ele>
        <time>2016-04-27T02:56:36Z</time>
      </trkpt>
      <trkpt lat="48.39333" lon="2.56837">
        <ele>83</ele>
        <time>2016-04-27T02:58:36Z</time>
      </trkpt>
      <trkpt lat="48.39337" lon="2.56843">
        <ele>82</ele>
        <time>2016-04-27T03:00:36Z</time>
      </trkpt>
      <trkpt lat="48.39341" lon="2.56846">
        <ele>82</ele>
        <time>2016-04-27T03:02:36Z</time>
      </trkpt>
      <trkpt lat="48.39341" lon="2.56855">
        <ele>82</ele>
        <time>2016-04-27T03:04:36Z</time>
      </trkpt>
      <trkpt lat="48.39338" lon="2.56888">
        <ele>82</ele>
        <time>2016-04-27T03:06:36Z</time>
      </trkpt>
      <trkpt lat="48.39337" lon="2.56938">
        <ele>82</ele>
        <time>2016-04-27T03:08:36Z</time>
      </trkpt>
      <trkpt lat="48.39334" lon="2.56954">
        <ele>82</ele>
        <time>2016-04-27T03:10:36Z</time>
      </trkpt>
      <trkpt lat="48.39329" lon="2.56984">
        <ele>84</ele>
        <time>2016-04-27T03:12:36Z</time>
      </trkpt>
      <trkpt lat="48.39327" lon="2.56999">
        <ele>84</ele>
        <time>2016-04-27T03:14:36Z</time>
      </trkpt>
      <trkpt lat="48.39325" lon="2.57017">
        <ele>84</ele>
        <time>2016-04-27T03:16:36Z</time>
      </trkpt>
      <trkpt lat="48.39325" lon="2.57043">
        <ele>84</ele>
        <time>2016-04-27T03:18:36Z</time>
      </trkpt>
      <trkpt lat="48.39325" lon="2.57064">
        <ele>83</ele>
        <time>2016-04-27T03:20:36Z</time>
      </trkpt>
      <trkpt lat="48.39322" lon="2.57078">
        <ele>84</ele>
        <time>2016-04-27T03:22:36Z</time>
      </trkpt>
      <trkpt lat="48.39318" lon="2.57091">
        <ele>84</ele>
        <time>2016-04-27T03:24:36Z</time>
      </trkpt>
      <trkpt lat="48.39316" lon="2.5711">
        <ele>83</ele>
        <time>2016-04-27T03:26:36Z</time>
      </trkpt>
      <trkpt lat="48.39315" lon="2.57119">
        <ele>83</ele>
        <time>2016-04-27T03:28:36Z</time>
      </trkpt>
      <trkpt lat="48.39314" lon="2.57137">
        <ele>82</ele>
        <time>2016-04-27T03:30:36Z</time>
      </trkpt>
      <trkpt lat="48.39311" lon="2.5716">
        <ele>81</ele>
        <time>2016-04-27T03:32:36Z</time>
      </trkpt>
      <trkpt lat="48.39307" lon="2.5718">
        <ele>81</ele>
        <time>2016-04-27T03:34:36Z</time>
      </trkpt>
      <trkpt lat="48.39304" lon="2.57198">
        <ele>81</ele>
        <time>2016-04-27T03:36:36Z</time>
      </trkpt>
      <trkpt lat="48.39304" lon="2.5721">
        <ele>81</ele>
        <time>2016-04-27T03:38:36Z</time>
      </trkpt>
      <trkpt lat="48.39306" lon="2.57223">
        <ele>80</ele>
        <time>2016-04-27T03:40:36Z</time>
      </trkpt>
      <trkpt lat="48.39304" lon="2.57244">
        <ele>80</ele>
        <time>2016-04-27T03:42:36Z</time>
      </trkpt>
      <trkpt lat="48.39301" lon="2.57272">
        <ele>81</ele>
        <time>2016-04-27T03:44:36Z</time>
      </trkpt>
      <trkpt lat="48.39296" lon="2.57297">
        <ele>81</ele>
        <time>2016-04-27T03:46:36Z</time>
      </trkpt>
      <trkpt lat="48.39293" lon="2.57314">
        <ele>82</ele>
        <time>2016-04-27T03:48:36Z</time>
      </trkpt>
      <trkpt lat="48.39292" lon="2.57329">
        <ele>82</ele>
        <time>2016-04-27T03:50:36Z</time>
      </trkpt>
      <trkpt lat="48.39285" lon="2.5736">
        <ele>82</ele>
        <time>2016-04-27T03:52:36Z</time>
      </trkpt>
      <trkpt lat="48.39279" lon="2.57387">
        <ele>83</ele>
        <time>2016-04-27T03:54:36Z</time>
      </trkpt>
      <trkpt lat="48.39274" lon="2.57404">
        <ele>83</ele>
        <time>2016-04-27T03:56:36Z</time>
      </trkpt>
      <trkpt lat="48.39274" lon="2.57419">
        <ele>83</ele>
        <time>2016-04-27T03:58:36Z</time>
      </trkpt>
      <trkpt lat="48.39274" lon="2.57441">
        <ele>82</ele>
        <time>2016-04-27T04:00:36Z</time>
      </trkpt>
      <trkpt lat="48.39271" lon="2.57462">
        <ele>82</ele>
        <time>2016-04-27T04:02:36Z</time>
      </trkpt>
      <trkpt lat="48.39266" lon="2.57487">
        <ele>83</ele>
        <time>2016-04-27T04:04:36Z</time>
      </trkpt>
      <trkpt lat="48.39264" lon="2.57515">
        <ele>83</ele>
        <time>2016-04-27T04:06:36Z</time>
      </trkpt>
      <trkpt lat="48.39257" lon="2.57596">
        <ele>83</ele>
        <time>2016-04-27T04:08:36Z</time>
      </trkpt>
      <trkpt lat="48.39254" lon="2.57608">
        <ele>83</ele>
        <time>2016-04-27T04:10:36Z</time>
      </trkpt>
      <trkpt lat="48.39252" lon="2.57632">
        <ele>83</ele>
        <time>2016-04-27T04:12:36Z</time>
      </trkpt>
      <trkpt lat="48.39249" lon="2.57653">
        <ele>83</ele>
        <time>2016-04-27T04:14:36Z</time>
      </trkpt>
      <trkpt lat="48.39247" lon="2.57669">
        <ele>83</ele>
        <time>2016-04-27T04:16:36Z</time>
      </trkpt>
      <trkpt lat="48.39244" lon="2.57679">
        <ele>83</ele>
        <time>2016-04-27T04:18:36Z</time>
      </trkpt>
      <trkpt lat="48.39233" lon="2.57691">
        <ele>85</ele>
        <time>2016-04-27T04:20:36Z</time>
      </trkpt>
      <trkpt lat="48.39226" lon="2.57724">
        <ele>86</ele>
        <time>2016-04-27T04:22:36Z</time>
      </trkpt>
      <trkpt lat="48.39225" lon="2.57743">
        <ele>86</ele>
        <time>2016-04-27T04:24:36Z</time>
      </trkpt>
      <trkpt lat="48.39224" lon="2.57819">
        <ele>86</ele>
        <time>2016-04-27T04:26:36Z</time>
      </trkpt>
      <trkpt lat="48.39226" lon="2.57846">
        <ele>86</ele>
        <time>2016-04-27T04:28:36Z</time>
      </trkpt>
      <trkpt lat="48.39228" lon="2.57868">
        <ele>86</ele>
        <time>2016-04-27T04:30:36Z</time>
      </trkpt>
      <trkpt lat="48.39228" lon="2.579">
        <ele>86</ele>
        <time>2016-04-27T04:32:36Z</time>
      </trkpt>
      <trkpt lat="48.39231" lon="2.57922">
        <ele>86</ele>
        <time>2016-04-27T04:34:36Z</time>
      </trkpt>
      <trkpt lat="48.39231" lon="2.57939">
        <ele>86</ele>
        <time>2016-04-27T04:36:36Z</time>
      </trkpt>
      <trkpt lat="48.39229" lon="2.57956">
        <ele>86</ele>
        <time>2016-04-27T04:38:36Z</time>
      </trkpt>
      <trkpt lat="48.39226" lon="2.57977">
        <ele>86</ele>
        <time>2016-04-27T04:40:36Z</time>
      </trkpt>
      <trkpt lat="48.39224" lon="2.57998">
        <ele>86</ele>
        <time>2016-04-27T04:42:36Z</time>
      </trkpt>
      <trkpt lat="48.3922" lon="2.58018">
        <ele>86</ele>
        <time>2016-04-27T04:44:36Z</time>
      </trkpt>
      <trkpt lat="48.39216" lon="2.58034">
        <ele>87</ele>
        <time>2016-04-27T04:46:36Z</time>
      </trkpt>
      <trkpt lat="48.39207" lon="2.58055">
        <ele>89</ele>
        <time>2016-04-27T04:48:36Z</time>
      </trkpt>
      <trkpt lat="48.39202" lon="2.58065">
        <ele>89</ele>
        <time>2016-04-27T04:50:36Z</time>
      </trkpt>
      <trkpt lat="48.39199" lon="2.58075">
        <ele>90</ele>
        <time>2016-04-27T04:52:36Z</time>
      </trkpt>
      <trkpt lat="48.39198" lon="2.58084">
        <ele>90</ele>
        <time>2016-04-27T04:54:36Z</time>
      </trkpt>
      <trkpt lat="48.39197" lon="2.58093">
        <ele>90</ele>
        <time>2016-04-27T04:56:36Z</time>
      </trkpt>
      <trkpt lat="48.392" lon="2.58105">
        <ele>90</ele>
        <time>2016-04-27T04:58:36Z</time>
      </trkpt>
      <trkpt lat="48.39204" lon="2.58112">
        <ele>89</ele>
        <time>2016-04-27T05:00:36Z</time>
      </trkpt>
      <trkpt lat="48.39215" lon="2.58124">
        <ele>88</ele>
        <time>2016-04-27T05:02:36Z</time>
      </trkpt>
      <trkpt lat="48.39221" lon="2.58129">
        <ele>87</ele>
        <time>2016-04-27T05:04:36Z</time>
      </trkpt>
      <trkpt lat="48.39233" lon="2.58131">
        <ele>86</ele>
        <time>2016-04-27T05:06:36Z</time>
      </trkpt>
      <trkpt lat="48.39245" lon="2.58144">
        <ele>85</ele>
        <time>2016-04-27T05:08:36Z</time>
      </trkpt>
      <trkpt lat="48.39256" lon="2.58162">
        <ele>85</ele>
        <time>2016-04-27T05:10:36Z</time>
      </trkpt>
      <trkpt lat="48.39264" lon="2.58173">
        <ele>84</ele>
        <time>2016-04-27T05:12:36Z</time>
      </trkpt>
      <trkpt lat="48.39299" lon="2.582">
        <ele>84</ele>
        <time>2016-04-27T05:14:36Z</time>
      </trkpt>
      <trkpt lat="48.39421" lon="2.58288">
        <ele>83</ele>
        <time>2016-04-27T05:16:36Z</time>
      </trkpt>
      <trkpt lat="48.39409" lon="2.58333">
        <ele>85</ele>
        <time>2016-04-27T05:18:36Z</time>
      </trkpt>
      <trkpt lat="48.39397" lon="2.58364">
        <ele>86</ele>
        <time>2016-04-27T05:20:36Z</time>
      </trkpt>
      <trkpt lat="48.39389" lon="2.58389">
        <ele>87</ele>
        <time>2016-04-27T05:22:36Z</time>
      </trkpt>
      <trkpt lat="48.3938" lon="2.58414">
        <ele>88</ele>
        <time>2016-04-27T05:24:36Z</time>
      </trkpt>
      <trkpt lat="48.39373" lon="2.58437">
        <ele>88</ele>
        <time>2016-04-27T05:26:36Z</time>
      </trkpt>
      <trkpt lat="48.39343" lon="2.58526">
        <ele>88</ele>
        <time>2016-04-27T05:28:36Z</time>
      </trkpt>
      <trkpt lat="48.39318" lon="2.58602">
        <ele>91</ele>
        <time>2016-04-27T05:30:36Z</time>
      </trkpt>
      <trkpt lat="48.39284" lon="2.58705">
        <ele>103</ele>
        <time>2016-04-27T05:32:36Z</time>
      </trkpt>
      <trkpt lat="48.39266" lon="2.58756">
        <ele>110</ele>
        <time>2016-04-27T05:34:36Z</time>
      </trkpt>
      <trkpt lat="48.39253" lon="2.58793">
        <ele>116</ele>
        <time>2016-04-27T05:36:36Z</time>
      </trkpt>
      <trkpt lat="48.39245" lon="2.58813">
        <ele>119</ele>
        <time>2016-04-27T05:38:36Z</time>
      </trkpt>
      <trkpt lat="48.39238" lon="2.58838">
        <ele>122</ele>
        <time>2016-04-27T05:40:36Z</time>
      </trkpt>
      <trkpt lat="48.39233" lon="2.58848">
        <ele>122</ele>
        <time>2016-04-27T05:42:36Z</time>
      </trkpt>
      <trkpt lat="48.39204" lon="2.58908">
        <ele>124</ele>
        <time>2016-04-27T05:44:36Z</time>
      </trkpt>
      <trkpt lat="48.39152" lon="2.59026">
        <ele>124</ele>
        <time>2016-04-27T05:46:36Z</time>
      </trkpt>
      <trkpt lat="48.39076" lon="2.59205">
        <ele>126</ele>
        <time>2016-04-27T05:48:36Z</time>
      </trkpt>
      <trkpt lat="48.39059" lon="2.59211">
        <ele>125</ele>
        <time>2016-04-27T05:50:36Z</time>
      </trkpt>
      <trkpt lat="48.39023" lon="2.5922">
        <ele>123</ele>
        <time>2016-04-27T05:52:36Z</time>
      </trkpt>
      <trkpt lat="48.3901" lon="2.59226">
        <ele>122</ele>
        <time>2016-04-27T05:54:36Z</time>
      </trkpt>
      <trkpt lat="48.38997" lon="2.59237">
        <ele>122</ele>
        <time>2016-04-27T05:56:36Z</time>
      </trkpt>
      <trkpt lat="48.38988" lon="2.59249">
        <ele>122</ele>
        <time>2016-04-27T05:58:36Z</time>
      </trkpt>
      <trkpt lat="48.3898" lon="2.59266">
        <ele>123</ele>
        <time>2016-04-27T06:00:36Z</time>
      </trkpt>
      <trkpt lat="48.38975" lon="2.59278">
        <ele>123</ele>
        <time>2016-04-27T06:02:36Z</time>
      </trkpt>
      <trkpt lat="48.38966" lon="2.59278">
        <ele>123</ele>
        <time>2016-04-27T06:04:36Z</time>
      </trkpt>
      <trkpt lat="48.38958" lon="2.59275">
        <ele>123</ele>
        <time>2016-04-27T06:06:36Z</time>
      </trkpt>
      <trkpt lat="48.3895" lon="2.59286">
        <ele>123</ele>
        <time>2016-04-27T06:08:36Z</time>
      </trkpt>
      <trkpt lat="48.38942" lon="2.59296">
        <ele>123</ele>
        <time>2016-04-27T06:10:36Z</time>
      </trkpt>
      <trkpt lat="48.38933" lon="2.59306">
        <ele>123</ele>
        <time>2016-04-27T06:12:36Z</time>
      </trkpt>
      <trkpt lat="48.38925" lon="2.59314">
        <ele>123</ele>
        <time>2016-04-27T06:14:36Z</time>
      </trkpt>
      <trkpt lat="48.38916" lon="2.59312">
        <ele>123</ele>
        <time>2016-04-27T06:16:36Z</time>
      </trkpt>
      <trkpt lat="48.38901" lon="2.59309">
        <ele>123</ele>
        <time>2016-04-27T06:18:36Z</time>
      </trkpt>
      <trkpt lat="48.38887" lon="2.59304">
        <ele>123</ele>
        <time>2016-04-27T06:20:36Z</time>
      </trkpt>
      <trkpt lat="48.38874" lon="2.593">
        <ele>124</ele>
        <time>2016-04-27T06:22:36Z</time>
      </trkpt>
      <trkpt lat="48.38864" lon="2.59303">
        <ele>124</ele>
        <time>2016-04-27T06:24:36Z</time>
      </trkpt>
      <trkpt lat="48.38847" lon="2.593">
        <ele>124</ele>
        <time>2016-04-27T06:26:36Z</time>
      </trkpt>
      <trkpt lat="48.3883" lon="2.59299">
        <ele>124</ele>
        <time>2016-04-27T06:28:36Z</time>
      </trkpt>
      <trkpt lat="48.38815" lon="2.59296">
        <ele>123</ele>
        <time>2016-04-27T06:30:36Z</time>
      </trkpt>
      <trkpt lat="48.38808" lon="2.59296">
        <ele>123</ele>
        <time>2016-04-27T06:32:36Z</time>
      </trkpt>
      <trkpt lat="48.38796" lon="2.59294">
        <ele>123</ele>
        <time>2016-04-27T06:34:36Z</time>
      </trkpt>
      <trkpt lat="48.38783" lon="2.59295">
        <ele>122</ele>
        <time>2016-04-27T06:36:36Z</time>
      </trkpt>
      <trkpt lat="48.38762" lon="2.59301">
        <ele>122</ele>
        <time>2016-04-27T06:38:36Z</time>
      </trkpt>
      <trkpt lat="48.38747" lon="2.59307">
        <ele>121</ele>
        <time>2016-04-27T06:40:36Z</time>
      </trkpt>
      <trkpt lat="48.38729" lon="2.59321">
        <ele>121</ele>
        <time>2016-04-27T06:42:36Z</time>
      </trkpt>
      <trkpt lat="48.38711" lon="2.59335">
        <ele>121</ele>
        <time>2016-04-27T06:44:36Z</time>
      </trkpt>
      <trkpt lat="48.38709" lon="2.59319">
        <ele>120</ele>
        <time>2016-04-27T06:46:36Z</time>
      </trkpt>
      <trkpt lat="48.38702" lon="2.59299">
        <ele>120</ele>
        <time>2016-04-27T06:48:36Z</time>
      </trkpt>
      <trkpt lat="48.387" lon="2.59281">
        <ele>120</ele>
        <time>2016-04-27T06:50:36Z</time>
      </trkpt>
      <trkpt lat="48.3869" lon="2.59263">
        <ele>119</ele>
        <time>2016-04-27T06:52:36Z</time>
      </trkpt>
      <trkpt lat="48.38683" lon="2.59247">
        <ele>119</ele>
        <time>2016-04-27T06:54:36Z</time>
      </trkpt>
      <trkpt lat="48.38675" lon="2.59238">
        <ele>118</ele>
        <time>2016-04-27T06:56:36Z</time>
      </trkpt>
      <trkpt lat="48.38672" lon="2.5923">
        <ele>118</ele>
        <time>2016-04-27T06:58:36Z</time>
      </trkpt>
      <trkpt lat="48.3866" lon="2.5919">
        <ele>118</ele>
        <time>2016-04-27T07:00:36Z</time>
      </trkpt>
      <trkpt lat="48.38642" lon="2.59156">
        <ele>118</ele>
        <time>2016-04-27T07:02:36Z</time>
      </trkpt>
      <trkpt lat="48.38618" lon="2.59107">
        <ele>117</ele>
        <time>2016-04-27T07:04:36Z</time>
      </trkpt>
      <trkpt lat="48.38592" lon="2.59059">
        <ele>114</ele>
        <time>2016-04-27T07:06:36Z</time>
      </trkpt>
      <trkpt lat="48.38579" lon="2.59028">
        <ele>113</ele>
        <time>2016-04-27T07:08:36Z</time>
      </trkpt>
      <trkpt lat="48.38555" lon="2.58958">
        <ele>112</ele>
        <time>2016-04-27T07:10:36Z</time>
      </trkpt>
      <trkpt lat="48.38538" lon="2.58926">
        <ele>110</ele>
        <time>2016-04-27T07:12:36Z</time>
      </trkpt>
      <trkpt lat="48.3853" lon="2.5891">
        <ele>110</ele>
        <time>2016-04-27T07:14:36Z</time>
      </trkpt>
      <trkpt lat="48.38524" lon="2.58898">
        <ele>109</ele>
        <time>2016-04-27T07:16:36Z</time>
      </trkpt>
      <trkpt lat="48.3852" lon="2.58883">
        <ele>108</ele>
        <time>2016-04-27T07:18:36Z</time>
      </trkpt>
      <trkpt lat="48.38508" lon="2.58862">
        <ele>107</ele>
        <time>2016-04-27T07:20:36Z</time>
      </trkpt>
      <trkpt lat="48.38501" lon="2.5885">
        <ele>106</ele>
        <time>2016-04-27T07:22:36Z</time>
      </trkpt>
      <trkpt lat="48.38496" lon="2.5884">
        <ele>106</ele>
        <time>2016-04-27T07:24:36Z</time>
      </trkpt>
      <trkpt lat="48.38486" lon="2.58809">
        <ele>104</ele>
        <time>2016-04-27T07:26:36Z</time>
      </trkpt>
      <trkpt lat="48.38494" lon="2.58803">
        <ele>104</ele>
        <time>2016-04-27T07:28:36Z</time>
      </trkpt>
      <trkpt lat="48.38498" lon="2.58797">
        <ele>104</ele>
        <time>2016-04-27T07:30:36Z</time>
      </trkpt>
      <trkpt lat="48.38503" lon="2.58786">
        <ele>103</ele>
        <time>2016-04-27T07:32:36Z</time>
      </trkpt>
      <trkpt lat="48.38507" lon="2.58765">
        <ele>102</ele>
        <time>2016-04-27T07:34:36Z</time>
      </trkpt>
      <trkpt lat="48.3851" lon="2.58744">
        <ele>102</ele>
        <time>2016-04-27T07:36:36Z</time>
      </trkpt>
      <trkpt lat="48.38514" lon="2.58703">
        <ele>102</ele>
        <time>2016-04-27T07:38:36Z</time>
      </trkpt>
      <trkpt lat="48.38524" lon="2.58624">
        <ele>103</ele>
        <time>2016-04-27T07:40:36Z</time>
      </trkpt>
      <trkpt lat="48.3854" lon="2.58461">
        <ele>109</ele>
        <time>2016-04-27T07:42:36Z</time>
      </trkpt>
      <trkpt lat="48.38543" lon="2.58423">
        <ele>111</ele>
        <time>2016-04-27T07:44:36Z</time>
      </trkpt>
      <trkpt lat="48.38556" lon="2.58309">
        <ele>111</ele>
        <time>2016-04-27T07:46:36Z</time>
      </trkpt>
      <trkpt lat="48.38559" lon="2.58293">
        <ele>111</ele>
        <time>2016-04-27T07:48:36Z</time>
      </trkpt>
      <trkpt lat="48.38574" lon="2.58156">
        <ele>113</ele>
        <time>2016-04-27T07:50:36Z</time>
      </trkpt>
      <trkpt lat="48.38574" lon="2.58121">
        <ele>112</ele>
        <time>2016-04-27T07:52:36Z</time>
      </trkpt>
      <trkpt lat="48.38574" lon="2.58099">
        <ele>112</ele>
        <time>2016-04-27T07:54:36Z</time>
      </trkpt>
      <trkpt lat="48.38577" lon="2.58079">
        <ele>112</ele>
        <time>2016-04-27T07:56:36Z</time>
      </trkpt>
      <trkpt lat="48.38585" lon="2.58048">
        <ele>112</ele>
        <time>2016-04-27T07:58:36Z</time>
      </trkpt>
      <trkpt lat="48.38588" lon="2.58038">
        <ele>113</ele>
        <time>2016-04-27T08:00:36Z</time>
      </trkpt>
      <trkpt lat="48.38595" lon="2.58027">
        <ele>113</ele>
        <time>2016-04-27T08:02:36Z</time>
      </trkpt>
      <trkpt lat="48.38605" lon="2.58014">
        <ele>114</ele>
        <time>2016-04-27T08:04:36Z</time>
      </trkpt>
      <trkpt lat="48.38603" lon="2.58003">
        <ele>114</ele>
        <time>2016-04-27T08:06:36Z</time>
      </trkpt>
      <trkpt lat="48.38589" lon="2.57999">
        <ele>112</ele>
        <time>2016-04-27T08:08:36Z</time>
      </trkpt>
      <trkpt lat="48.38575" lon="2.58003">
        <ele>110</ele>
        <time>2016-04-27T08:10:36Z</time>
      </trkpt>
      <trkpt lat="48.38565" lon="2.58005">
        <ele>109</ele>
        <time>2016-04-27T08:12:36Z</time>
      </trkpt>
      <trkpt lat="48.38553" lon="2.58007">
        <ele>108</ele>
        <time>2016-04-27T08:14:36Z</time>
      </trkpt>
      <trkpt lat="48.38541" lon="2.58008">
        <ele>107</ele>
        <time>2016-04-27T08:16:36Z</time>
      </trkpt>
      <trkpt lat="48.3853" lon="2.58004">
        <ele>106</ele>
        <time>2016-04-27T08:18:36Z</time>
      </trkpt>
      <trkpt lat="48.38519" lon="2.58007">
        <ele>105</ele>
        <time>2016-04-27T08:20:36Z</time>
      </trkpt>
      <trkpt lat="48.38512" lon="2.5801">
        <ele>104</ele>
        <time>2016-04-27T08:22:36Z</time>
      </trkpt>
      <trkpt lat="48.38502" lon="2.58012">
        <ele>103</ele>
        <time>2016-04-27T08:24:36Z</time>
      </trkpt>
      <trkpt lat="48.38492" lon="2.58009">
        <ele>103</ele>
        <time>2016-04-27T08:26:36Z</time>
      </trkpt>
      <trkpt lat="48.38483" lon="2.58011">
        <ele>102</ele>
        <time>2016-04-27T08:28:36Z</time>
      </trkpt>
      <trkpt lat="48.38475" lon="2.58019">
        <ele>102</ele>
        <time>2016-04-27T08:30:36Z</time>
      </trkpt>
      <trkpt lat="48.38467" lon="2.58029">
        <ele>101</ele>
        <time>2016-04-27T08:32:36Z</time>
      </trkpt>
      <trkpt lat="48.38455" lon="2.58042">
        <ele>101</ele>
        <time>2016-04-27T08:34:36Z</time>
      </trkpt>
      <trkpt lat="48.38436" lon="2.58062">
        <ele>100</ele>
        <time>2016-04-27T08:36:36Z</time>
      </trkpt>
      <trkpt lat="48.38423" lon="2.58078">
        <ele>99</ele>
        <time>2016-04-27T08:38:36Z</time>
      </trkpt>
      <trkpt lat="48.38406" lon="2.58096">
        <ele>98</ele>
        <time>2016-04-27T08:40:36Z</time>
      </trkpt>
      <trkpt lat="48.3841" lon="2.58066">
        <ele>99</ele>
        <time>2016-04-27T08:42:36Z</time>
      </trkpt>
      <trkpt lat="48.38414" lon="2.58037">
        <ele>99</ele>
        <time>2016-04-27T08:44:36Z</time>
      </trkpt>
      <trkpt lat="48.38423" lon="2.58004">
        <ele>99</ele>
        <time>2016-04-27T08:46:36Z</time>
      </trkpt>
      <trkpt lat="48.38428" lon="2.57984">
        <ele>100</ele>
        <time>2016-04-27T08:48:36Z</time>
      </trkpt>
      <trkpt lat="48.38431" lon="2.5796">
        <ele>100</ele>
        <time>2016-04-27T08:50:36Z</time>
      </trkpt>
      <trkpt lat="48.38433" lon="2.57926">
        <ele>100</ele>
        <time>2016-04-27T08:52:36Z</time>
      </trkpt>
      <trkpt lat="48.38433" lon="2.57886">
        <ele>99</ele>
        <time>2016-04-27T08:54:36Z</time>
      </trkpt>
      <trkpt lat="48.38435" lon="2.57873">
        <ele>99</ele>
        <time>2016-04-27T08:56:36Z</time>
      </trkpt>
      <trkpt lat="48.38452" lon="2.57819">
        <ele>99</ele>
        <time>2016-04-27T08:58:36Z</time>
      </trkpt>
      <trkpt lat="48.3846" lon="2.57797">
        <ele>98</ele>
        <time>2016-04-27T09:00:36Z</time>
      </trkpt>
      <trkpt lat="48.38464" lon="2.57781">
        <ele>98</ele>
        <time>2016-04-27T09:02:36Z</time>
      </trkpt>
      <trkpt lat="48.38465" lon="2.57751">
        <ele>97</ele>
        <time>2016-04-27T09:04:36Z</time>
      </trkpt>
      <trkpt lat="48.38479" lon="2.57607">
        <ele>95</ele>
        <time>2016-04-27T09:06:36Z</time>
      </trkpt>
      <trkpt lat="48.38478" lon="2.57584">
        <ele>95</ele>
        <time>2016-04-27T09:08:36Z</time>
      </trkpt>
      <trkpt lat="48.38473" lon="2.57544">
        <ele>95</ele>
        <time>2016-04-27T09:10:36Z</time>
      </trkpt>
      <trkpt lat="48.38478" lon="2.57515">
        <ele>94</ele>
        <time>2016-04-27T09:12:36Z</time>
      </trkpt>
      <trkpt lat="48.38487" lon="2.57476">
        <ele>92</ele>
        <time>2016-04-27T09:14:36Z</time>
      </trkpt>
      <trkpt lat="48.38503" lon="2.57442">
        <ele>90</ele>
        <time>2016-04-27T09:16:36Z</time>
      </trkpt>
      <trkpt lat="48.38519" lon="2.57413">
        <ele>91</ele>
        <time>2016-04-27T09:18:36Z</time>
      </trkpt>
      <trkpt lat="48.38526" lon="2.57395">
        <ele>91</ele>
        <time>2016-04-27T09:20:36Z</time>
      </trkpt>
      <trkpt lat="48.38532" lon="2.57379">
        <ele>91</ele>
        <time>2016-04-27T09:22:36Z</time>
      </trkpt>
      <trkpt lat="48.38538" lon="2.57354">
        <ele>91</ele>
        <time>2016-04-27T09:24:36Z</time>
      </trkpt>
      <trkpt lat="48.38542" lon="2.57329">
        <ele>90</ele>
        <time>2016-04-27T09:26:36Z</time>
      </trkpt>
      <trkpt lat="48.38543" lon="2.57306">
        <ele>90</ele>
        <time>2016-04-27T09:28:36Z</time>
      </trkpt>
      <trkpt lat="48.3854" lon="2.57267">
        <ele>90</ele>
        <time>2016-04-27T09:30:36Z</time>
      </trkpt>
      <trkpt lat="48.38534" lon="2.57235">
        <ele>89</ele>
        <time>2016-04-27T09:32:36Z</time>
      </trkpt>
      <trkpt lat="48.38526" lon="2.57203">
        <ele>89</ele>
        <time>2016-04-27T09:34:36Z</time>
      </trkpt>
      <trkpt lat="48.38517" lon="2.57168">
        <ele>88</ele>
        <time>2016-04-27T09:36:36Z</time>
      </trkpt>
      <trkpt lat="48.38526" lon="2.57091">
        <ele>89</ele>
        <time>2016-04-27T09:38:36Z</time>
      </trkpt>
      <trkpt lat="48.3853" lon="2.57069">
        <ele>89</ele>
        <time>2016-04-27T09:40:36Z</time>
      </trkpt>
      <trkpt lat="48.38535" lon="2.57049">
        <ele>89</ele>
        <time>2016-04-27T09:42:36Z</time>
      </trkpt>
      <trkpt lat="48.3854" lon="2.57035">
        <ele>88</ele>
        <time>2016-04-27T09:44:36Z</time>
      </trkpt>
      <trkpt lat="48.38553" lon="2.57006">
        <ele>88</ele>
        <time>2016-04-27T09:46:36Z</time>
      </trkpt>
      <trkpt lat="48.38565" lon="2.56998">
        <ele>87</ele>
        <time>2016-04-27T09:48:36Z</time>
      </trkpt>
      <trkpt lat="48.38578" lon="2.56961">
        <ele>86</ele>
        <time>2016-04-27T09:50:36Z</time>
      </trkpt>
      <trkpt lat="48.38587" lon="2.56931">
        <ele>86</ele>
        <time>2016-04-27T09:52:36Z</time>
      </trkpt>
      <trkpt lat="48.38598" lon="2.56881">
        <ele>88</ele>
        <time>2016-04-27T09:54:36Z</time>
      </trkpt>
      <trkpt lat="48.38597" lon="2.56841">
        <ele>87</ele>
        <time>2016-04-27T09:56:36Z</time>
      </trkpt>
      <trkpt lat="48.38594" lon="2.56819">
        <ele>87</ele>
        <time>2016-04-27T09:58:36Z</time>
      </trkpt>
      <trkpt lat="48.3859" lon="2.56798">
        <ele>87</ele>
        <time>2016-04-27T10:00:36Z</time>
      </trkpt>
      <trkpt lat="48.38588" lon="2.56776">
        <ele>87</ele>
        <time>2016-04-27T10:02:36Z</time>
      </trkpt>
      <trkpt lat="48.38588" lon="2.56764">
        <ele>87</ele>
        <time>2016-04-27T10:04:36Z</time>
      </trkpt>
      <trkpt lat="48.38593" lon="2.56725">
        <ele>87</ele>
        <time>2016-04-27T10:06:36Z</time>
      </trkpt>
      <trkpt lat="48.38601" lon="2.56667">
        <ele>87</ele>
        <time>2016-04-27T10:08:36Z</time>
      </trkpt>
      <trkpt lat="48.38621" lon="2.56595">
        <ele>88</ele>
        <time>2016-04-27T10:10:36Z</time>
      </trkpt>
      <trkpt lat="48.38656" lon="2.56472">
        <ele>83</ele>
        <time>2016-04-27T10:12:36Z</time>
      </trkpt>
      <trkpt lat="48.38683" lon="2.56405">
        <ele>82</ele>
        <time>2016-04-27T10:14:36Z</time>
      </trkpt>
      <trkpt lat="48.38704" lon="2.5636">
        <ele>82</ele>
        <time>2016-04-27T10:16:36Z</time>
      </trkpt>
      <trkpt lat="48.3871" lon="2.56351">
        <ele>81</ele>
        <time>2016-04-27T10:18:36Z</time>
      </trkpt>
      <trkpt lat="48.38717" lon="2.56351">
        <ele>81</ele>
        <time>2016-04-27T10:20:36Z</time>
      </trkpt>
      <trkpt lat="48.38723" lon="2.56343">
        <ele>81</ele>
        <time>2016-04-27T10:22:36Z</time>
      </trkpt>
      <trkpt lat="48.3873" lon="2.56311">
        <ele>81</ele>
        <time>2016-04-27T10:24:36Z</time>
      </trkpt>
    </trkseg>
  </trk>
</gpx>